Campanya meteocatpedra

Dades de l'estació automàtica els Alamús

?
?
Resum diari 20:00 TU
Dades diàries de l'estació meteorològica
Temperatura mitjana 12.2 °C
Temperatura màxima 18.3 °C 14:34 TU
Temperatura mínima 6.2 °C 6:27 TU
Humitat relativa mitjana 80%
Precipitació acumulada 0.0 mm
Ratxa màxima del vent (2 m) 15.1 km/h - 238º 13:40 TU

El tram horari està expressat en Temps Universal (TU). Cal sumar una hora en horari d'hivern i dues en horari d'estiu per passar a l'hora oficial.

els Alamús

Metadades estació meteorol´gica
Municipi Els Alamús
Comarca Segrià
Altitud 235 m
Data alta 22.06.2011
Estat actual Operativa
Dades de període
Període
TU
TM
°C
TX
°C
TN
°C
HRM
%
PPT
mm
VVM (2 m)
km/h
DVM (2 m)
graus
VVX (2 m)
km/h
00:00 - 00:30 11.0 11.3 10.4 83 0.0 1.8 192 6.5
00:30 - 01:00 10.1 10.4 9.5 83 0.0 1.8 202 5.8
01:00 - 01:30 9.1 10.1 8.6 84 0.0 1.8 218 7.6
01:30 - 02:00 10.2 10.3 9.9 82 0.0 2.5 206 8.6
02:00 - 02:30 9.7 9.9 9.5 84 0.0 2.2 199 7.6
02:30 - 03:00 9.1 9.5 8.8 85 0.0 1.8 198 5.8
03:00 - 03:30 9.2 9.3 9.1 86 0.0 1.8 184 6.8
03:30 - 04:00 9.3 9.4 9.2 86 0.0 2.2 208 6.1
04:00 - 04:30 8.9 9.2 8.5 88 0.0 1.1 217 4.3
04:30 - 05:00 8.4 8.5 8.0 90 0.0 0.7 175 2.9
05:00 - 05:30 7.7 7.9 7.5 93 0.0 0.4 188 2.2
05:30 - 06:00 6.9 7.5 6.4 95 0.0 0.4 319 2.2
06:00 - 06:30 6.4 6.5 6.2 97 0.0 0.7 153 2.5
06:30 - 07:00 6.9 8.2 6.3 97 0.0 0.4 154 2.2
07:00 - 07:30 9.6 11.0 8.3 91 0.0 0.4 261 2.9
07:30 - 08:00 11.3 11.6 11.0 80 0.0 2.5 222 7.6
08:00 - 08:30 11.9 12.7 11.5 78 0.0 4.0 247 9.7
08:30 - 09:00 12.3 12.9 11.6 77 0.0 4.3 251 11.9
09:00 - 09:30 13.1 13.7 12.5 74 0.0 3.2 262 10.8
09:30 - 10:00 13.8 14.8 12.9 71 0.0 2.9 259 8.6
10:00 - 10:30 14.7 15.2 14.1 70 0.0 3.6 272 10.1
10:30 - 11:00 15.4 15.8 14.4 69 0.0 4.3 263 11.9
11:00 - 11:30 15.9 16.4 15.5 67 0.0 4.7 251 13.0
11:30 - 12:00 16.6 16.8 16.2 64 0.0 4.3 271 11.2
12:00 - 12:30 16.9 17.2 16.4 64 0.0 3.6 263 11.2
12:30 - 13:00 17.0 17.7 16.5 63 0.0 4.7 288 11.9
13:00 - 13:30 17.3 17.6 16.5 63 0.0 4.7 258 12.2
13:30 - 14:00 17.6 17.9 17.2 63 0.0 5.0 247 15.1
14:00 - 14:30 17.9 18.1 17.5 62 0.0 5.0 263 13.7
14:30 - 15:00 17.9 18.3 17.6 63 0.0 4.3 262 11.5
15:00 - 15:30 17.8 18.0 17.6 62 0.0 4.3 268 11.9
15:30 - 16:00 17.6 17.8 17.3 65 0.0 3.2 260 10.4
16:00 - 16:30 17.1 17.3 16.7 69 0.0 2.2 247 7.2
16:30 - 17:00 15.6 16.7 14.0 76 0.0 0.4 247 2.5
17:00 - 17:30 12.7 14.0 10.9 89 0.0 1.1 158 2.5
17:30 - 18:00 10.4 11.3 9.7 93 0.0 1.1 146 2.9
18:00 - 18:30 9.7 10.0 9.6 95 0.0 1.4 150 2.9
18:30 - 19:00 9.6 9.8 9.5 94 0.0 2.5 147 5.0
19:00 - 19:30 9.3 9.7 8.8 94 0.0 1.4 154 4.0
19:30 - 20:00 8.7 9.0 8.4 96 0.0 1.1 157 2.2
20:00 - 20:30 8.2 8.4 7.8 96 0.0 0.7 152 2.2

Les dades en taronja només han passat un control de qualitat automàtic. Resta pendent la seva validació definitiva.